Latest Weather Observations for Leinster

IDW60801

Issued at 5:33 pm WST Sunday 20 August 2017 (issued every 30 minutes, with the page automatically refreshed every 10 minutes)

About weather observations | Map of weather stations | Latest weather observations for WA | Other Formats
Station Details ID: 012314 Name: LEINSTER AERO Lat: -27.84 Lon: 120.70 Height: 497.0 m
Data from the previous 72 hours. | See also: Recent months at Leinster
Date/Time
WST
Temp
°C
App
Temp
°C
Dew
Point
°C
Rel
Hum
%
Delta-T
°C
Wind Press
QNH
hPa
Press
MSL
hPa
Rain since
9am
mm
Dir  Spd
km/h
Gust
km/h
Spd
kts
Gust
kts
20/05:30pm 16.2 12.1 4.3 45 5.7 S 15 24 8 13 1020.5 1019.7 0.0
20/05:00pm 16.5 12.3 3.9 43 6.0 S 15 28 8 15 1020.2 1019.5 0.0
20/04:30pm 16.9 12.4 4.3 43 6.1 SSW 17 24 9 13 1020.0 1019.3 0.0
20/04:00pm 17.2 12.7 4.2 42 6.3 SSW 17 28 9 15 1019.9 1019.2 0.0
20/03:30pm 16.9 12.4 4.3 43 6.1 SSW 17 26 9 14 1019.8 1019.1 0.0
20/03:00pm 16.9 12.4 4.3 43 6.1 SSW 17 28 9 15 1019.9 1019.2 0.0
20/02:30pm 17.1 12.1 4.8 44 6.0 S 20 33 11 18 1020.0 1019.3 0.0
20/02:00pm 16.6 11.8 4.6 45 5.8 S 19 30 10 16 1020.1 1019.4 0.0
20/01:30pm 16.1 10.7 4.5 46 5.6 SSW 22 39 12 21 1020.4 1019.6 0.0
20/01:00pm 16.1 11.5 5.4 49 5.2 SSW 19 28 10 15 1020.6 1019.8 0.0
20/12:30pm 15.4 11.6 5.6 52 4.8 SSW 15 24 8 13 1021.0 1020.2 0.0
20/12:00pm 14.5 9.6 5.3 54 4.4 SSW 20 32 11 17 1021.5 1020.8 0.0
20/11:30am 13.5 8.3 5.4 58 3.9 SSW 22 39 12 21 1022.0 1021.3 0.0
20/11:00am 12.6 7.7 5.1 60 3.6 SSW 20 30 11 16 1022.6 1021.8 0.0
20/10:30am 11.8 6.5 5.0 63 3.2 SSW 22 35 12 19 1022.9 1022.1 0.0
20/10:00am 10.8 5.4 4.7 66 2.8 SW 22 30 12 16 1023.2 1022.5 0.0
20/09:30am 9.9 5.0 5.1 72 2.2 SW 20 32 11 17 1023.3 1022.6 0.0
20/09:00am 9.0 3.7 4.8 75 1.9 SW 22 30 12 16 1022.9 1022.1 0.0
20/08:30am 8.8 3.5 5.2 78 1.7 SW 22 35 12 19 1022.6 1021.8 0.0
20/08:00am 8.3 3.0 5.2 81 1.4 SW 22 32 12 17 1022.0 1021.3 0.0
20/07:30am 7.9 2.7 5.5 85 1.1 SW 22 32 12 17 1021.9 1021.2 0.0
20/07:00am 7.5 3.1 5.0 84 1.1 WSW 17 20 9 11 1021.4 1020.7 0.0
20/06:30am 6.8 2.7 4.5 85 1.0 WSW 15 19 8 10 1021.0 1020.2 0.0
20/06:00am 6.9 3.1 3.9 81 1.3 WSW 13 17 7 9 1020.7 1019.9 0.0
20/05:30am 7.0 2.8 3.6 79 1.5 WSW 15 20 8 11 1020.2 1019.5 0.0
20/05:00am 7.4 3.5 3.6 77 1.7 WSW 13 17 7 9 1019.7 1019.0 0.0
20/04:30am 8.1 3.5 3.9 75 1.9 WSW 17 24 9 13 1019.4 1018.6 0.0
20/04:00am 8.4 3.8 3.7 72 2.1 WSW 17 24 9 13 1019.5 1018.8 0.0
20/03:30am 8.5 4.6 3.4 70 2.3 SW 13 17 7 9 1019.4 1018.6 0.0
20/03:00am 9.0 4.3 3.2 67 2.6 SW 17 22 9 12 1019.1 1018.3 0.0
20/02:30am 9.4 5.2 3.6 67 2.6 SW 15 22 8 12 1019.1 1018.3 0.0
20/02:00am 9.5 5.7 3.7 67 2.6 WSW 13 19 7 10 1019.0 1018.2 0.0
20/01:30am 9.7 5.9 3.7 66 2.7 WSW 13 19 7 10 1018.7 1017.9 0.0
20/01:00am 10.1 6.2 3.4 63 3.0 WSW 13 19 7 10 1018.6 1017.8 0.0
20/12:30am 10.6 6.7 3.2 60 3.3 WSW 13 19 7 10 1018.6 1017.8 0.0
20/12:00am 11.3 6.2 3.1 57 3.7 SW 19 26 10 14 1018.5 1017.7 0.0
 
Date/Time
WST
Temp
°C
App
Temp
°C
Dew
Point
°C
Rel
Hum
%
Delta-T
°C
Wind Press
QNH
hPa
Press
MSL
hPa
Rain since
9am
mm
Dir  Spd
km/h
Gust
km/h
Spd
kts
Gust
kts
19/11:30pm 11.6 6.3 2.9 55 3.9 SW 20 28 11 15 1018.4 1017.6 0.0
19/11:00pm 12.1 6.8 2.8 53 4.2 SW 20 30 11 16 1018.4 1017.6 0.0
19/10:30pm 12.6 7.9 3.0 52 4.4 SW 17 22 9 12 1018.5 1017.7 0.0
19/10:00pm 13.1 8.4 2.9 50 4.6 WSW 17 24 9 13 1018.3 1017.5 0.0
19/09:30pm 13.6 8.8 2.8 48 4.9 WSW 17 22 9 12 1018.3 1017.5 0.0
19/09:00pm 14.2 9.1 2.8 46 5.2 SW 19 26 10 14 1018.1 1017.4 0.0
19/08:30pm 14.4 10.7 2.3 44 5.5 SW 11 17 6 9 1017.9 1017.2 0.0
19/08:00pm 15.2 10.7 2.4 42 5.9 WSW 15 20 8 11 1017.8 1017.1 0.0
19/07:30pm 15.8 10.7 2.9 42 6.0 WSW 19 28 10 15 1017.5 1016.7 0.0
19/07:00pm 16.4 11.1 3.1 41 6.2 WSW 20 28 11 15 1017.1 1016.3 0.0
19/06:30pm 17.5 12.8 3.0 38 6.9 WSW 17 28 9 15 1016.8 1016.0 0.0
19/06:00pm 17.5 12.8 3.4 39 6.7 WNW 17 28 9 15 1016.3 1015.5 0.0
19/05:30pm 17.9 13.3 3.8 39 6.8 WNW 17 24 9 13 1016.0 1015.3 0.0
19/05:00pm 18.6 13.6 4.4 39 7.0 W 20 30 11 16 1015.8 1015.0 0.0
19/04:30pm 18.7 13.3 4.5 39 7.0 WNW 22 33 12 18 1015.5 1014.7 0.0
19/04:00pm 19.1 14.7 4.5 38 7.2 WSW 17 24 9 13 1015.4 1014.6 0.0
19/03:30pm 18.7 13.3 4.5 39 7.0 W 22 32 12 17 1015.4 1014.6 0.0
19/03:00pm 18.9 14.1 4.7 39 7.0 WSW 19 24 10 13 1015.1 1014.3 0.0
19/02:30pm 20.0 13.8 4.1 35 7.8 W 26 37 14 20 1014.9 1014.1 0.0
19/02:00pm 20.4 14.7 4.8 36 7.8 SW 24 33 13 18 1014.8 1014.0 0.0
19/01:30pm 21.0 15.2 4.6 34 8.2 WSW 24 30 13 16 1015.1 1014.3 0.0
19/01:00pm 20.1 14.2 3.8 34 8.0 WSW 24 33 13 18 1015.4 1014.6 0.0
19/12:30pm 20.4 15.4 4.4 35 7.9 WSW 20 33 11 18 1015.5 1014.7 0.0
19/12:00pm 19.3 14.2 3.9 36 7.5 WSW 20 30 11 16 1015.9 1015.1 0.0
19/11:30am 19.6 14.6 3.7 35 7.7 WSW 19 28 10 15 1016.2 1015.4 0.0
19/11:00am 19.8 14.7 3.9 35 7.8 WSW 20 28 11 15 1016.4 1015.6 0.0
19/10:30am 18.4 13.2 3.8 38 7.1 WSW 20 28 11 15 1016.6 1015.8 0.0
19/10:00am 18.8 13.8 3.8 37 7.3 WSW 19 26 10 14 1016.8 1016.0 0.0
19/09:30am 17.7 12.7 3.6 39 6.8 WSW 19 28 10 15 1016.9 1016.1 0.0
19/09:00am 17.1 11.9 3.8 41 6.4 SW 20 24 11 13 1016.9 1016.1 0.0
19/08:30am 16.2 11.6 3.9 44 5.9 WSW 17 24 9 13 1016.8 1016.0 0.0
19/08:00am 15.0 10.2 4.4 49 5.1 WSW 19 24 10 13 1016.5 1015.7 0.0
19/07:30am 14.4 9.9 4.1 50 4.9 WSW 17 22 9 12 1016.0 1015.3 0.0
19/07:00am 14.2 10.4 3.7 49 4.9 NW 13 19 7 10 1015.7 1014.9 0.0
19/06:30am 14.5 10.5 3.0 46 5.3 NW 13 17 7 9 1015.4 1014.6 0.0
19/06:00am 14.6 10.1 2.2 43 5.6 NNW 15 19 8 10 1014.9 1014.1 0.0
19/05:30am 15.8 10.5 1.9 39 6.3 NNW 19 26 10 14 1014.6 1013.8 0.0
19/05:00am 16.4 10.9 1.7 37 6.7 N 20 28 11 15 1014.1 1013.2 0.0
19/04:30am 16.8 10.9 1.7 36 6.9 N 22 28 12 15 1013.7 1012.9 0.0
19/04:00am 17.2 10.9 1.6 35 7.1 N 24 33 13 18 1013.7 1012.9 0.0
19/03:30am 16.9 11.9 1.4 35 7.1 N 17 24 9 13 1013.8 1013.0 0.0
19/03:00am 16.5 12.3 1.4 36 6.8 N 13 17 7 9 1014.2 1013.3 0.0
19/02:30am 17.4 13.2 1.4 34 7.3 N 13 19 7 10 1014.2 1013.3 0.0
19/02:00am 18.1 12.5 1.2 32 7.7 NNE 20 28 11 15 1013.8 1013.0 0.0
19/01:30am 18.2 13.3 1.7 33 7.6 N 17 24 9 13 1014.2 1013.3 0.0
19/01:00am 18.4 13.9 1.9 33 7.7 N 15 22 8 12 1014.7 1013.9 0.0
19/12:30am 18.4 14.3 2.3 34 7.6 N 13 20 7 11 1014.9 1014.1 0.0
19/12:00am 18.4 14.8 2.7 35 7.4 N 11 17 6 9 1015.1 1014.3 0.0
 
Date/Time
WST
Temp
°C
App
Temp
°C
Dew
Point
°C
Rel
Hum
%
Delta-T
°C
Wind Press
QNH
hPa
Press
MSL
hPa
Rain since
9am
mm
Dir  Spd
km/h
Gust
km/h
Spd
kts
Gust
kts
18/11:30pm 18.9 14.4 2.3 33 7.8 NNE 15 19 8 10 1015.2 1014.4 0.0
18/11:00pm 19.1 15.0 2.5 33 7.9 NNE 13 20 7 11 1015.3 1014.5 0.0
18/10:30pm 19.5 14.3 2.4 32 8.1 NE 19 26 10 14 1015.6 1014.8 0.0
18/10:00pm 19.7 14.5 2.6 32 8.1 NE 19 28 10 15 1015.5 1014.7 0.0
18/09:30pm 19.6 15.2 2.9 33 8.0 NE 15 20 8 11 1015.6 1014.8 0.0
18/09:00pm 20.0 15.6 2.8 32 8.2 NE 15 24 8 13 1015.7 1014.9 0.0
18/08:30pm 20.7 16.4 3.0 31 8.6 NE 15 20 8 11 1015.7 1014.9 0.0
18/08:00pm 20.8 16.5 3.1 31 8.6 NE 15 19 8 10 1015.9 1015.1 0.0
18/07:30pm 20.4 16.9 3.6 33 8.2 NE 11 15 6 8 1015.8 1015.0 0.0
18/07:00pm 20.9 17.7 3.2 31 8.6 NE 9 13 5 7 1015.7 1014.9 0.0
18/06:30pm 21.7 18.2 3.4 30 9.0 NE 11 13 6 7 1015.4 1014.6 0.0
18/06:00pm 22.5 18.9 3.1 28 9.5 NE 11 13 6 7 1015.1 1014.3 0.0
18/05:30pm 23.6 19.6 3.0 26 10.2 NE 13 19 7 10 1015.1 1014.3 0.0
18/05:00pm 24.6 20.2 2.7 24 10.8 N 15 22 8 12 1015.0 1014.2 0.0
18/04:30pm 25.2 19.9 2.0 22 11.4 NNE 19 26 10 14 1015.0 1014.2 0.0
18/04:00pm 25.6 20.2 2.3 22 11.5 NNE 20 30 11 16 1015.1 1014.3 0.0
18/03:30pm 25.0 20.1 1.8 22 11.3 NNE 17 28 9 15 1015.3 1014.5 0.0
18/03:00pm 25.4 20.0 2.2 22 11.4 NNE 20 33 11 18 1015.3 1014.5 0.0
18/02:30pm 25.0 19.4 1.2 21 11.5 NNE 20 33 11 18 1015.5 1014.7 0.0
18/02:00pm 24.4 18.2 1.9 23 10.9 NNE 24 39 13 21 1015.8 1015.0 0.0
18/01:30pm 24.5 18.6 1.4 22 11.1 NNE 22 30 12 16 1016.3 1015.5 0.0
18/01:00pm 23.9 17.5 0.9 22 10.9 NNE 24 33 13 18 1016.9 1016.1 0.0
18/12:30pm 23.8 18.2 1.4 23 10.8 NNE 20 35 11 19 1017.4 1016.6 0.0
18/12:00pm 22.6 16.9 0.4 23 10.3 NE 20 32 11 17 1018.1 1017.4 0.0
18/11:30am 21.7 15.2 0.3 24 9.9 NE 24 35 13 19 1018.8 1018.0 0.0
18/11:00am 20.2 13.6 -0.4 25 9.3 NE 24 33 13 18 1019.3 1018.5 0.0
18/10:30am 19.3 12.7 -0.7 26 8.9 NE 24 35 13 19 1019.8 1019.1 0.0
18/10:00am 18.0 11.7 -0.8 28 8.2 ENE 22 30 12 16 1020.0 1019.3 0.0
18/09:30am 15.5 9.1 -1.5 31 7.2 NE 22 33 12 18 1020.5 1019.7 0.0
18/09:00am 14.2 7.7 -2.2 32 6.7 NE 22 35 12 19 1020.5 1019.7 0.0
18/08:30am 13.2 6.3 -2.3 34 6.3 ENE 24 33 13 18 1020.4 1019.6 0.0
18/08:00am 11.6 5.4 -2.9 36 5.7 ENE 20 32 11 17 1020.2 1019.5 0.0
18/07:30am 9.4 3.8 -2.5 43 4.6 ENE 17 20 9 11 1020.1 1019.4 0.0
18/07:00am 7.4 2.2 -2.6 49 3.8 ENE 15 22 8 12 1019.8 1019.1 0.0
18/06:30am 6.9 1.7 -3.1 49 3.7 ENE 15 19 8 10 1019.5 1018.8 0.0
18/06:00am 7.2 1.6 -3.1 48 3.8 ENE 17 20 9 11 1019.4 1018.6 0.0
18/05:30am 7.4 2.2 -2.9 48 3.9 ENE 15 20 8 11 1019.2 1018.4 0.0
18/05:00am 7.5 2.7 -2.8 48 3.9 ENE 13 19 7 10 1018.9 1018.1 0.0
18/04:30am 7.3 2.2 -2.2 51 3.6 ENE 15 19 8 10 1018.7 1017.9 0.0
18/04:00am 6.5 1.9 -1.4 57 3.0 ENE 13 17 7 9 1018.7 1017.9 0.0
18/03:30am 6.3 1.6 -1.6 57 3.0 ENE 13 15 7 8 1018.8 1018.0 0.0
18/03:00am 6.4 1.7 -1.5 57 3.0 ENE 13 17 7 9 1018.8 1018.0 0.0
18/02:30am 6.2 2.0 -1.2 59 2.9 ENE 11 13 6 7 1018.8 1018.0 0.0
18/02:00am 6.9 2.2 -1.5 55 3.2 E 13 15 7 8 1018.9 1018.1 0.0
18/01:30am 7.4 2.8 -1.3 54 3.4 ENE 13 17 7 9 1019.2 1018.4 0.0
18/01:00am 7.7 3.0 -1.5 52 3.6 E 13 15 7 8 1019.4 1018.6 0.0
18/12:30am 7.9 3.6 -1.3 52 3.6 ENE 11 13 6 7 1019.6 1018.9 0.0
18/12:00am 8.5 4.3 -1.0 51 3.8 ENE 11 15 6 8 1019.6 1018.9 0.0
 
Date/Time
WST
Temp
°C
App
Temp
°C
Dew
Point
°C
Rel
Hum
%
Delta-T
°C
Wind Press
QNH
hPa
Press
MSL
hPa
Rain since
9am
mm
Dir  Spd
km/h
Gust
km/h
Spd
kts
Gust
kts
17/11:30pm 8.9 4.7 -0.7 51 3.9 ENE 11 15 6 8 1019.7 1019.0 0.0
17/11:00pm 9.2 5.1 -0.1 52 3.8 ENE 11 15 6 8 1019.8 1019.1 0.0
17/10:30pm 9.7 5.3 0.3 52 3.9 ENE 13 17 7 9 1019.9 1019.2 0.0
17/10:00pm 10.0 5.7 0.9 53 3.8 ENE 13 17 7 9 1019.8 1019.1 0.0
17/09:30pm 10.4 6.1 1.2 53 3.9 E 13 15 7 8 1019.8 1019.1 0.0
17/09:00pm 10.8 6.8 0.8 50 4.2 E 11 15 6 8 1019.7 1019.0 0.0
17/08:30pm 11.8 8.2 0.6 46 4.8 E 9 15 5 8 1019.7 1019.0 0.0
17/08:00pm 11.9 7.9 0.7 46 4.8 E 11 13 6 7 1019.6 1018.9 0.0
17/07:30pm 12.4 8.8 0.8 45 5.0 E 9 11 5 6 1019.5 1018.8 0.0
17/07:00pm 13.1 9.1 0.5 42 5.4 E 11 13 6 7 1019.3 1018.5 0.0
17/06:30pm 14.0 10.4 0.3 39 5.9 ENE 9 13 5 7 1019.1 1018.3 0.0
17/06:00pm 15.1 11.1 0.5 37 6.4 ENE 11 15 6 8 1019.0 1018.2 0.0

Other Formats:

Comma delimited format used in spreadsheet applications
http://www.bom.gov.au/fwo/IDW60801/IDW60801.95448.axf

JavaScript Object Notation format (JSON) in row-major order
http://www.bom.gov.au/fwo/IDW60801/IDW60801.95448.json